createdAt,value
2018-12-29T00:01:22.191Z,15.13
2018-12-29T00:03:50.805Z,14.93
2018-12-29T00:06:19.484Z,16.30
2018-12-29T00:08:51.063Z,14.47
2018-12-29T00:11:31.525Z,15.73
2018-12-29T00:14:06.085Z,14.83
2018-12-29T00:16:34.689Z,15.07
2018-12-29T00:19:03.515Z,15.37
2018-12-29T00:21:34.705Z,16.10
2018-12-29T00:24:03.051Z,15.70
2018-12-29T00:26:32.219Z,15.83
2018-12-29T00:29:01.350Z,17.10
2018-12-29T00:31:30.025Z,15.80
2018-12-29T00:34:01.559Z,15.40
2018-12-29T00:36:30.449Z,15.47
2018-12-29T00:38:58.889Z,14.47
2018-12-29T00:41:30.186Z,15.47
2018-12-29T00:43:58.763Z,15.13
2018-12-29T00:46:27.495Z,13.80
2018-12-29T00:48:56.226Z,14.97
2018-12-29T00:51:24.886Z,14.13
2018-12-29T00:53:53.511Z,15.60
2018-12-29T00:56:22.337Z,13.93
2018-12-29T00:58:53.276Z,13.90
2018-12-29T01:01:21.964Z,13.80
2018-12-29T01:03:50.524Z,14.80
2018-12-29T01:06:19.388Z,14.63
2018-12-29T01:08:47.990Z,14.30
2018-12-29T01:11:16.609Z,13.13
2018-12-29T01:13:45.220Z,13.87
2018-12-29T01:16:14.134Z,13.90
2018-12-29T01:18:43.075Z,12.50
2018-12-29T01:21:11.652Z,13.00
2018-12-29T01:23:43.266Z,12.43
2018-12-29T01:26:14.016Z,13.17
2018-12-29T01:28:42.728Z,13.43
2018-12-29T01:31:11.262Z,14.13
2018-12-29T01:33:42.560Z,13.70
2018-12-29T01:36:11.098Z,12.90
2018-12-29T01:38:40.642Z,13.60
2018-12-29T01:41:09.290Z,13.63
2018-12-29T01:43:39.862Z,13.43
2018-12-29T01:46:08.393Z,13.50
2018-12-29T01:48:39.470Z,14.57
2018-12-29T01:51:07.923Z,14.33
2018-12-29T01:53:36.378Z,14.50
2018-12-29T01:56:05.170Z,14.03
2018-12-29T01:58:33.825Z,14.83
2018-12-29T02:01:02.338Z,13.67
2018-12-29T02:03:30.826Z,12.90
2018-12-29T02:05:59.420Z,14.13
2018-12-29T02:08:27.987Z,12.93
2018-12-29T02:10:56.387Z,13.63
2018-12-29T02:13:28.325Z,12.97
2018-12-29T02:15:56.803Z,13.57
2018-12-29T02:18:25.491Z,13.33
2018-12-29T02:20:54.211Z,13.20
2018-12-29T02:23:22.603Z,12.77
2018-12-29T02:25:51.198Z,14.07
2018-12-29T02:28:19.799Z,13.83
2018-12-29T02:30:48.332Z,12.97
2018-12-29T02:33:16.861Z,12.93
2018-12-29T02:35:48.415Z,13.73
2018-12-29T02:38:17.101Z,12.93
2018-12-29T02:40:45.734Z,12.73
2018-12-29T02:43:14.266Z,14.17
2018-12-29T02:45:42.812Z,13.87
2018-12-29T02:48:11.559Z,13.33
2018-12-29T02:50:40.220Z,11.77
2018-12-29T02:53:08.740Z,13.63
2018-12-29T02:55:37.318Z,13.97
2018-12-29T02:58:05.912Z,12.43
2018-12-29T03:00:34.482Z,13.00
2018-12-29T03:03:04.424Z,12.73
2018-12-29T03:05:33.042Z,13.70
2018-12-29T03:08:04.656Z,11.70
2018-12-29T03:10:33.052Z,12.70
2018-12-29T03:13:01.690Z,12.33
2018-12-29T03:15:30.198Z,12.93
2018-12-29T03:17:58.748Z,11.63
2018-12-29T03:20:27.365Z,11.13
2018-12-29T03:22:55.990Z,11.60
2018-12-29T03:25:24.626Z,10.80
2018-12-29T03:27:53.175Z,10.43
2018-12-29T03:30:22.219Z,10.23
2018-12-29T03:32:50.663Z,9.80
2018-12-29T03:35:19.189Z,9.73
2018-12-29T03:37:47.655Z,10.30
2018-12-29T03:40:17.385Z,10.30
2018-12-29T03:42:45.963Z,8.53
2018-12-29T03:45:14.421Z,8.87
2018-12-29T03:47:43.225Z,8.13
2018-12-29T03:50:12.401Z,8.57
2018-12-29T03:52:43.939Z,9.03
2018-12-29T03:55:13.120Z,7.83
2018-12-29T03:57:42.623Z,8.73
2018-12-29T04:00:11.275Z,8.73
2018-12-29T04:02:42.580Z,8.57
2018-12-29T04:05:11.306Z,8.43
2018-12-29T04:07:40.022Z,8.83
2018-12-29T04:10:11.713Z,9.30
2018-12-29T04:12:40.435Z,7.50
2018-12-29T04:15:09.104Z,7.30
2018-12-29T04:17:37.706Z,8.20
2018-12-29T04:20:06.356Z,7.63
2018-12-29T04:22:34.941Z,7.37
2018-12-29T04:25:03.583Z,7.40
2018-12-29T04:27:32.350Z,7.83
2018-12-29T04:30:00.767Z,7.77
2018-12-29T04:32:29.480Z,7.70
2018-12-29T04:34:58.132Z,7.73
2018-12-29T04:37:26.699Z,8.50
2018-12-29T04:39:55.657Z,7.90
2018-12-29T04:42:24.127Z,8.30
2018-12-29T04:44:53.219Z,7.97
2018-12-29T04:47:21.718Z,7.70
2018-12-29T04:49:50.187Z,8.53
2018-12-29T04:52:20.409Z,7.77
2018-12-29T04:54:48.923Z,8.10
2018-12-29T04:57:17.477Z,8.53
2018-12-29T04:59:46.064Z,7.07
2018-12-29T05:02:14.850Z,8.20
2018-12-29T05:04:43.505Z,8.17
2018-12-29T05:07:12.058Z,8.13
2018-12-29T05:09:40.659Z,8.10
2018-12-29T05:12:09.088Z,9.13
2018-12-29T05:14:37.597Z,8.33
2018-12-29T05:17:06.017Z,8.07
2018-12-29T05:19:34.702Z,8.03
2018-12-29T05:22:04.199Z,7.77
2018-12-29T05:24:32.825Z,7.40
2018-12-29T05:27:01.313Z,7.47
2018-12-29T05:29:29.788Z,7.27
2018-12-29T05:31:59.832Z,7.80
2018-12-29T05:34:28.389Z,7.63
2018-12-29T05:36:56.805Z,7.70
2018-12-29T05:39:25.493Z,7.40
2018-12-29T05:41:53.979Z,7.10
2018-12-29T05:44:22.394Z,7.20
2018-12-29T05:46:50.861Z,7.17
2018-12-29T05:49:19.730Z,7.73
2018-12-29T05:51:48.238Z,7.20
2018-12-29T05:54:16.781Z,7.10
2018-12-29T05:56:45.643Z,7.60
2018-12-29T05:59:14.293Z,7.83
2018-12-29T06:01:42.732Z,7.20
2018-12-29T06:04:11.744Z,7.93
2018-12-29T06:06:40.247Z,7.57
2018-12-29T06:09:08.912Z,8.03
2018-12-29T06:11:37.562Z,7.37
2018-12-29T06:14:06.002Z,7.47
2018-12-29T06:16:34.574Z,8.20
2018-12-29T06:19:03.173Z,8.30
2018-12-29T06:21:31.946Z,8.07
2018-12-29T06:24:00.511Z,7.40
2018-12-29T06:26:30.105Z,6.83
2018-12-29T06:28:58.630Z,7.20
2018-12-29T06:31:30.040Z,7.90
2018-12-29T06:34:01.821Z,7.73
2018-12-29T06:36:32.084Z,7.07
2018-12-29T06:39:00.585Z,7.33
2018-12-29T06:41:29.080Z,7.50
2018-12-29T06:43:57.560Z,8.30
2018-12-29T06:46:34.606Z,7.47
2018-12-29T06:48:57.816Z,7.20
2018-12-29T06:51:26.378Z,7.33
2018-12-29T06:53:54.796Z,7.10
2018-12-29T06:56:23.348Z,7.20
2018-12-29T06:58:51.766Z,7.17
2018-12-29T07:01:20.308Z,6.30
2018-12-29T07:03:48.948Z,7.00
2018-12-29T07:06:17.427Z,7.00
2018-12-29T07:08:45.876Z,6.90
2018-12-29T07:11:14.346Z,6.63
2018-12-29T07:13:42.843Z,7.17
2018-12-29T07:16:11.330Z,7.57
2018-12-29T07:18:39.972Z,7.43
2018-12-29T07:21:08.522Z,6.83
2018-12-29T07:23:37.172Z,7.03
2018-12-29T07:26:05.673Z,7.43
2018-12-29T07:28:34.374Z,6.50
2018-12-29T07:31:02.834Z,6.93
2018-12-29T07:33:31.459Z,5.97
2018-12-29T07:35:59.970Z,6.27
2018-12-29T07:38:28.534Z,6.63
2018-12-29T07:40:57.162Z,5.63
2018-12-29T07:43:25.696Z,5.97
2018-12-29T07:45:54.320Z,6.30
2018-12-29T07:48:22.898Z,6.43
2018-12-29T07:50:51.496Z,6.10
2018-12-29T07:53:19.961Z,6.43
2018-12-29T07:55:48.548Z,6.83
2018-12-29T07:58:35.408Z,5.90
2018-12-29T08:01:03.920Z,8.20
2018-12-29T08:03:32.318Z,7.47
2018-12-29T08:06:00.980Z,7.23
2018-12-29T08:08:29.589Z,6.33
2018-12-29T08:10:58.249Z,6.90
2018-12-29T08:13:26.884Z,6.47
2018-12-29T08:15:58.571Z,6.87
2018-12-29T08:18:27.524Z,6.83
2018-12-29T08:20:57.137Z,6.50
2018-12-29T08:23:25.929Z,6.50
2018-12-29T08:25:54.611Z,6.97
2018-12-29T08:28:23.158Z,6.70
2018-12-29T08:30:51.615Z,7.43
2018-12-29T08:33:20.165Z,7.63
2018-12-29T08:35:49.090Z,8.40
2018-12-29T08:38:17.675Z,8.10
2018-12-29T08:40:46.210Z,8.30
2018-12-29T08:43:15.217Z,8.47
2018-12-29T08:45:43.800Z,9.60
2018-12-29T08:48:14.079Z,9.07
2018-12-29T08:50:42.626Z,9.43
2018-12-29T08:53:11.074Z,10.20
2018-12-29T08:55:39.670Z,10.80
2018-12-29T08:58:09.547Z,10.93
2018-12-29T09:00:38.027Z,11.33
2018-12-29T09:03:06.536Z,11.23
2018-12-29T09:05:35.120Z,11.63
2018-12-29T09:08:05.546Z,11.93
2018-12-29T09:10:34.092Z,12.43
2018-12-29T09:13:02.596Z,12.80
2018-12-29T09:15:31.433Z,13.40
2018-12-29T09:17:59.835Z,14.80
2018-12-29T09:20:28.308Z,14.77
2018-12-29T09:22:56.967Z,14.60
2018-12-29T09:25:25.538Z,15.67
2018-12-29T09:28:03.707Z,16.70
2018-12-29T09:30:34.552Z,19.27
2018-12-29T09:33:04.984Z,19.53
2018-12-29T09:35:37.220Z,21.27
2018-12-29T09:38:05.806Z,22.63
2018-12-29T09:40:34.479Z,22.13
2018-12-29T09:43:03.256Z,23.10
2018-12-29T09:45:31.902Z,22.60
2018-12-29T09:48:00.842Z,24.13
2018-12-29T09:50:29.452Z,23.40
2018-12-29T09:52:58.096Z,23.83
2018-12-29T09:55:26.682Z,23.00
2018-12-29T09:57:56.223Z,23.97
2018-12-29T10:00:24.749Z,24.63
2018-12-29T10:02:53.811Z,23.57
2018-12-29T10:05:25.182Z,24.20
2018-12-29T10:07:57.947Z,23.23
2018-12-29T10:10:26.827Z,21.93
2018-12-29T10:12:56.598Z,22.20
2018-12-29T10:15:28.282Z,22.20
2018-12-29T10:18:00.023Z,19.50
2018-12-29T10:20:28.602Z,19.37
2018-12-29T10:22:57.330Z,17.90
2018-12-29T10:25:25.942Z,18.97
2018-12-29T10:27:54.693Z,18.30
2018-12-29T10:30:23.446Z,22.27
2018-12-29T10:32:53.120Z,21.73
2018-12-29T10:35:23.509Z,21.47
2018-12-29T10:38:00.788Z,22.00
2018-12-29T10:40:43.748Z,22.63
2018-12-29T10:43:12.314Z,21.83
2018-12-29T10:45:41.110Z,22.60
2018-12-29T10:48:09.605Z,22.43
2018-12-29T10:50:38.162Z,21.37
2018-12-29T10:53:06.775Z,22.43
2018-12-29T10:55:35.619Z,21.17
2018-12-29T10:58:04.237Z,19.30
2018-12-29T11:00:35.158Z,15.87
2018-12-29T11:03:03.112Z,14.10
2018-12-29T11:05:32.805Z,13.90
2018-12-29T11:08:01.456Z,15.33
2018-12-29T11:10:30.276Z,14.97
2018-12-29T11:12:59.079Z,13.73
2018-12-29T11:15:27.705Z,15.87
2018-12-29T11:17:56.403Z,14.70
2018-12-29T11:20:25.065Z,15.43
2018-12-29T11:22:56.438Z,13.93
2018-12-29T11:25:24.957Z,13.57
2018-12-29T11:27:53.776Z,13.17
2018-12-29T11:30:22.412Z,13.70
2018-12-29T11:32:51.948Z,15.37
2018-12-29T11:35:20.729Z,13.73
2018-12-29T11:37:49.154Z,13.97
2018-12-29T11:40:17.697Z,15.20
2018-12-29T11:42:48.734Z,17.00
2018-12-29T11:45:17.531Z,16.80
2018-12-29T11:47:49.732Z,17.27
2018-12-29T11:50:16.338Z,15.27
2018-12-29T11:52:46.991Z,15.33
2018-12-29T11:55:15.655Z,13.70
2018-12-29T11:57:44.421Z,15.67
2018-12-29T12:00:13.420Z,15.73
2018-12-29T12:02:42.967Z,13.87
2018-12-29T12:05:11.680Z,13.13
2018-12-29T12:07:41.319Z,13.93
2018-12-29T12:10:10.070Z,13.90
2018-12-29T12:12:39.064Z,12.23
2018-12-29T12:15:07.811Z,12.80
2018-12-29T12:17:36.403Z,12.87
2018-12-29T12:20:05.864Z,13.27
2018-12-29T12:22:34.460Z,14.60
2018-12-29T12:25:03.070Z,15.40
2018-12-29T12:27:32.603Z,16.73
2018-12-29T12:30:02.569Z,15.60
2018-12-29T12:32:31.463Z,15.43
2018-12-29T12:35:02.120Z,14.90
2018-12-29T12:37:32.301Z,14.50
2018-12-29T12:40:02.928Z,14.80
2018-12-29T12:42:31.489Z,14.20
2018-12-29T12:45:40.042Z,14.07
2018-12-29T12:48:44.367Z,15.03
2018-12-29T12:51:19.875Z,16.20
2018-12-29T12:53:48.880Z,15.43
2018-12-29T12:56:37.560Z,16.03
2018-12-29T12:59:06.389Z,16.73
2018-12-29T13:01:34.992Z,18.20
2018-12-29T13:04:05.634Z,16.53
2018-12-29T13:06:34.609Z,19.03
2018-12-29T13:09:04.072Z,17.87
2018-12-29T13:11:32.857Z,17.77
2018-12-29T13:14:01.474Z,20.87
2018-12-29T13:16:29.991Z,18.93
2018-12-29T13:18:58.669Z,21.30
2018-12-29T13:21:27.293Z,20.37
2018-12-29T13:23:56.262Z,20.73
2018-12-29T13:26:27.798Z,20.70
2018-12-29T13:28:56.400Z,20.33
2018-12-29T13:31:24.930Z,20.43
2018-12-29T13:33:53.372Z,19.67
2018-12-29T13:36:27.999Z,20.17
2018-12-29T13:38:57.684Z,19.93
2018-12-29T13:41:26.453Z,20.47
2018-12-29T13:43:55.906Z,20.13
2018-12-29T13:46:24.458Z,21.33
2018-12-29T13:48:53.217Z,21.07
2018-12-29T13:51:21.928Z,20.70
2018-12-29T13:53:50.519Z,20.63
2018-12-29T13:56:19.986Z,20.43
2018-12-29T13:58:48.706Z,21.33
2018-12-29T14:01:17.484Z,20.90
2018-12-29T14:03:45.972Z,21.17
2018-12-29T14:06:14.599Z,22.17
2018-12-29T14:08:43.294Z,21.03
2018-12-29T14:11:11.862Z,20.60
2018-12-29T14:13:40.820Z,19.80
2018-12-29T14:16:09.368Z,19.20
2018-12-29T14:18:40.306Z,22.13
2018-12-29T14:21:09.345Z,21.83
2018-12-29T14:23:37.864Z,20.90
2018-12-29T14:26:09.339Z,18.10
2018-12-29T14:28:38.040Z,17.03
2018-12-29T14:31:10.061Z,19.80
2018-12-29T14:33:38.720Z,17.23
2018-12-29T14:36:07.276Z,17.07
2018-12-29T14:38:35.810Z,16.43
2018-12-29T14:41:04.423Z,17.47
2018-12-29T14:43:33.004Z,16.17
2018-12-29T14:46:01.839Z,15.27
2018-12-29T14:48:35.788Z,14.77
2018-12-29T14:51:03.184Z,15.93
2018-12-29T14:53:31.958Z,15.77
2018-12-29T14:56:06.836Z,15.87
2018-12-29T14:58:53.708Z,16.30
2018-12-29T15:01:18.486Z,15.57
2018-12-29T15:03:49.025Z,15.30
2018-12-29T15:06:17.685Z,15.63
2018-12-29T15:08:48.316Z,14.50
2018-12-29T15:11:16.859Z,15.17
2018-12-29T15:13:45.355Z,14.90
2018-12-29T15:16:15.516Z,14.20
2018-12-29T15:18:44.411Z,16.57
2018-12-29T15:21:13.245Z,16.17
2018-12-29T15:23:41.796Z,15.90
2018-12-29T15:26:10.850Z,16.77
2018-12-29T15:28:43.345Z,18.80
2018-12-29T15:31:16.426Z,17.23
2018-12-29T15:33:44.910Z,17.50
2018-12-29T15:36:16.182Z,17.67
2018-12-29T15:38:43.951Z,19.13
2018-12-29T15:41:15.559Z,17.23
2018-12-29T15:43:44.168Z,18.77
2018-12-29T15:46:12.918Z,19.07
2018-12-29T15:48:41.594Z,18.77
2018-12-29T15:51:10.243Z,19.37
2018-12-29T15:53:57.828Z,19.07
2018-12-29T15:57:21.228Z,17.60
2018-12-29T16:00:29.672Z,18.40
2018-12-29T16:03:00.301Z,18.43
2018-12-29T16:05:48.216Z,20.03
2018-12-29T16:08:22.604Z,21.07
2018-12-29T16:11:47.082Z,22.27
2018-12-29T16:14:18.430Z,21.40
2018-12-29T16:17:05.519Z,21.13
2018-12-29T16:19:34.028Z,20.60
2018-12-29T16:22:02.673Z,23.03
2018-12-29T16:24:31.517Z,24.63
2018-12-29T16:27:15.267Z,24.20
2018-12-29T16:29:47.052Z,24.83
2018-12-29T16:32:20.631Z,24.87
2018-12-29T16:34:51.440Z,25.43
2018-12-29T16:37:24.350Z,24.83
2018-12-29T16:39:54.038Z,24.93
2018-12-29T16:42:41.078Z,25.80
2018-12-29T16:45:30.751Z,25.50
2018-12-29T16:47:59.254Z,24.20
2018-12-29T16:50:29.428Z,24.67
2018-12-29T16:53:04.346Z,24.93
2018-12-29T16:55:37.557Z,25.90
2018-12-29T16:58:14.467Z,28.43
2018-12-29T17:00:48.365Z,27.87
2018-12-29T17:03:17.241Z,29.87
2018-12-29T17:05:49.319Z,27.07
2018-12-29T17:08:18.075Z,28.67
2018-12-29T17:10:52.816Z,30.20
2018-12-29T17:13:21.514Z,31.40
2018-12-29T17:15:49.995Z,33.57
2018-12-29T17:18:18.661Z,32.23
2018-12-29T17:20:47.460Z,30.30
2018-12-29T17:23:20.689Z,31.20
2018-12-29T17:25:49.303Z,33.07
2018-12-29T17:28:18.941Z,34.07
2018-12-29T17:31:10.494Z,38.33
2018-12-29T17:33:58.515Z,35.40
2018-12-29T17:36:27.455Z,36.53
2018-12-29T17:38:56.505Z,35.03
2018-12-29T17:41:29.561Z,32.23
2018-12-29T17:43:59.993Z,34.13
2018-12-29T17:46:30.641Z,25.50
2018-12-29T17:49:01.041Z,33.67
2018-12-29T17:51:32.409Z,33.83
2018-12-29T17:54:02.729Z,37.77
2018-12-29T17:56:33.022Z,34.23
2018-12-29T17:59:03.189Z,37.27
2018-12-29T18:01:31.791Z,39.63
2018-12-29T18:04:23.141Z,32.07
2018-12-29T18:06:50.535Z,37.47
2018-12-29T18:09:25.229Z,40.60
2018-12-29T18:11:51.927Z,36.43
2018-12-29T18:14:20.401Z,42.37
2018-12-29T18:16:50.932Z,40.73
2018-12-29T18:19:20.307Z,41.70
2018-12-29T18:21:48.851Z,35.63
2018-12-29T18:24:37.686Z,38.70
2018-12-29T18:27:06.340Z,39.93
2018-12-29T18:29:37.950Z,41.93
2018-12-29T18:32:06.749Z,42.63
2018-12-29T18:34:35.743Z,44.63
2018-12-29T18:37:07.148Z,38.80
2018-12-29T18:39:37.263Z,42.13
2018-12-29T18:42:05.777Z,44.73
2018-12-29T18:44:34.515Z,41.27
2018-12-29T18:47:03.187Z,44.60
2018-12-29T18:49:38.400Z,38.73
2018-12-29T18:52:07.730Z,42.03
2018-12-29T18:54:39.361Z,38.17
2018-12-29T18:57:11.172Z,42.37
2018-12-29T18:59:54.474Z,44.17
2018-12-29T19:02:23.152Z,42.33
2018-12-29T19:04:55.778Z,38.77
2018-12-29T19:07:26.135Z,46.80
2018-12-29T19:09:55.322Z,43.60
2018-12-29T19:12:29.761Z,45.83
2018-12-29T19:14:58.398Z,48.40
2018-12-29T19:17:27.736Z,42.90
2018-12-29T19:20:00.824Z,45.27
2018-12-29T19:22:34.064Z,45.47
2018-12-29T19:25:02.784Z,44.97
2018-12-29T19:30:43.589Z,47.53
2018-12-29T19:33:31.957Z,40.87
2018-12-29T19:36:43.305Z,46.70
2018-12-29T19:39:12.324Z,43.37
2018-12-29T19:41:46.535Z,45.47
2018-12-29T19:44:11.438Z,46.20
2018-12-29T19:46:42.341Z,44.13
2018-12-29T19:49:11.150Z,46.17
2018-12-29T19:51:39.966Z,49.13
2018-12-29T19:54:10.271Z,49.53
2018-12-29T19:56:39.125Z,45.50
2018-12-29T19:59:08.050Z,42.77
2018-12-29T20:01:36.656Z,44.77
2018-12-29T20:04:05.586Z,46.90
2018-12-29T20:06:34.185Z,42.67
2018-12-29T20:09:02.649Z,44.77
2018-12-29T20:11:31.432Z,45.13
2018-12-29T20:14:00.116Z,43.77
2018-12-29T20:16:28.821Z,46.87
2018-12-29T20:19:06.286Z,43.93
2018-12-29T20:21:34.878Z,43.47
2018-12-29T20:24:07.081Z,42.93
2018-12-29T20:26:41.178Z,45.83
2018-12-29T20:29:12.304Z,44.77
2018-12-29T20:31:48.543Z,44.50
2018-12-29T20:34:17.543Z,45.27
2018-12-29T20:36:46.440Z,44.77
2018-12-29T20:42:18.777Z,43.50
2018-12-29T20:44:54.940Z,41.57
2018-12-29T20:47:34.803Z,43.63
2018-12-29T20:50:09.575Z,41.70
2018-12-29T20:52:39.820Z,43.40
2018-12-29T20:55:17.237Z,40.47
2018-12-29T20:57:52.671Z,43.70
2018-12-29T21:00:34.028Z,40.33
2018-12-29T21:03:09.241Z,37.60
2018-12-29T21:05:49.338Z,41.60
2018-12-29T21:08:25.728Z,40.77
2018-12-29T21:10:56.704Z,43.90
2018-12-29T21:13:28.788Z,42.57
2018-12-29T21:16:09.761Z,40.60
2018-12-29T21:18:40.791Z,34.20
2018-12-29T21:21:14.518Z,39.50
2018-12-29T21:23:49.949Z,38.20
2018-12-29T21:26:21.291Z,38.10
2018-12-29T21:28:52.342Z,35.90
2018-12-29T21:31:24.556Z,36.13
2018-12-29T21:33:59.801Z,36.43
2018-12-29T21:36:34.706Z,35.63
2018-12-29T21:39:04.953Z,34.87
2018-12-29T21:41:36.761Z,29.20
2018-12-29T21:44:09.188Z,32.63
2018-12-29T21:46:39.192Z,30.10
2018-12-29T21:49:07.662Z,31.30
2018-12-29T21:51:36.510Z,34.67
2018-12-29T21:54:07.061Z,34.50
2018-12-29T21:56:35.638Z,33.23
2018-12-29T21:59:06.553Z,33.63
2018-12-29T22:01:37.716Z,29.57
2018-12-29T22:04:07.656Z,32.10
2018-12-29T22:06:36.440Z,30.13
2018-12-29T22:09:09.413Z,30.33
2018-12-29T22:11:39.431Z,28.83
2018-12-29T22:14:08.153Z,30.33
2018-12-29T22:16:39.149Z,28.33
2018-12-29T22:19:27.111Z,31.43
2018-12-29T22:22:00.250Z,27.97
2018-12-29T22:24:31.497Z,33.57
2018-12-29T22:27:00.322Z,32.37
2018-12-29T22:29:28.884Z,35.57
2018-12-29T22:31:58.687Z,36.07
2018-12-29T22:34:38.590Z,36.80
2018-12-29T22:37:07.210Z,37.00
2018-12-29T22:39:43.851Z,38.13
2018-12-29T22:42:10.141Z,38.70
2018-12-29T22:44:40.727Z,38.80
2018-12-29T22:47:23.346Z,38.03
2018-12-29T22:49:59.357Z,37.67
2018-12-29T22:52:30.224Z,38.00
2018-12-29T22:55:05.430Z,36.77
2018-12-29T22:57:35.728Z,38.33
2018-12-29T23:00:14.129Z,36.90
2018-12-29T23:02:44.929Z,38.03
2018-12-29T23:05:52.449Z,36.47
2018-12-29T23:11:54.065Z,34.00
2018-12-29T23:14:38.057Z,35.80
2018-12-29T23:17:25.512Z,34.90
2018-12-29T23:20:00.532Z,36.27
2018-12-29T23:22:27.317Z,34.80
2018-12-29T23:24:55.821Z,33.70
2018-12-29T23:27:49.581Z,33.07
2018-12-29T23:30:08.069Z,34.10
2018-12-29T23:32:54.543Z,33.93
2018-12-29T23:36:10.353Z,32.67
2018-12-29T23:42:36.492Z,30.57
2018-12-29T23:48:09.042Z,29.07
2018-12-29T23:50:39.099Z,30.67
2018-12-29T23:53:07.668Z,33.00
2018-12-29T23:55:36.776Z,32.60
2018-12-29T23:58:35.831Z,31.17
